Pineville, South Carolina
Current Conditions -  °F | °C
As of 9:35 AM on Sunday 25 Jan 2015 (Local Time) from KMKS Reporting Station
Clear Clear  
Wind Chill: 43°   Ceiling: Unl
Heat Index: 43°   Visibility: 7mi
Dew Point: 34°   Wind: 0mph
Humidity: 70%   Direction: NA
Pressure: 30.01"   Gusts: NA
Location:  33.43°N, 80.02°W
Report Text: KMKS 251435Z AUTO 00000KT 7SM CLR 06/01 A3001 RMK AO2
Loading
Personal Weather Stations






























Interactive Weather Map New forecast layout! Learn more

10-Day Weather Forecast

Advertisements
Track Severe Weather on mobile